Accueil
METAR-TAF:

METAR-TAF

Aéroports :

Haïfa, Israël

latitude: 32-48N, longitude: 035-02E, altitude: 8 m

Observation

Le bulletin a été fait il y a 1 heure et 44 minutes, à 17:50 UTC
Vent 4 kt de sud/sud-est
Température 16°C
Humidité 27%
Pression 1019 hPa
Visibilité 10 km ou plus
pas de nuages en-dessous de 1500 mètres et pas de cumulonimbus.

METAR: LLHA 201750Z 15004KT CAVOK 16/M03 Q1019

Heure: 21:34 (19:34 UTC)

Prévision

Le bulletin a été fait il y a 2 heures et 28 minutes, à 17:06 UTC
Prévision valable du 20 à 18 UTC au 21 à 18 UTC
Vent 6 kt de nord-est
Visibilité 10 km ou plus
pas de nuages en-dessous de 1500 mètres et pas de cumulonimbus.
Probabilité 40%
du 21 à 02 UTC au 21 à 06 UTC
Vent 17 kt de est/sud-est
Temporairement
du 21 à 11 UTC au 21 à 17 UTC
Vent 6 kt de nord/nord-est

TAF: LLHA 201706Z 2018/2118 05006KT CAVOK PROB40 2102/2106 12017KT TEMPO 2111/2117 03006KT TX23/2112Z TN13/2104Z

Observations et prévisions météorologiques de plus de 4000 aéroports (messages METAR et TAF).

Les stations disponibles sont représentées par des disques jaunes et rouges sur la carte.

Passer la souris dessus pour voir le nom de la station.

Cliquer dessus pour voir les observations et prévisions météorologiques.

Pour changer de carte: cliquez sur les boutons verts avec une croix noire pour zoomer, sur le bouton vert avec un tiret pour effectuer un zoom arrière, ou sur les flèches vertes pour les cartes adjacentes.


METAR-TAF: